sensor_id;sensor_type;location;lat;lon;timestamp;P1;durP1;ratioP1;P2;durP2;ratioP2
60819;SDS011;46641;48.904;9.126;2022-12-24T00:02:05;6.00;;;1.87;;
60819;SDS011;46641;48.904;9.126;2022-12-24T00:06:55;5.10;;;1.98;;
60819;SDS011;46641;48.904;9.126;2022-12-24T00:11:46;5.82;;;2.45;;
60819;SDS011;46641;48.904;9.126;2022-12-24T00:16:36;4.57;;;1.98;;
60819;SDS011;46641;48.904;9.126;2022-12-24T00:21:26;6.83;;;2.27;;
60819;SDS011;46641;48.904;9.126;2022-12-24T00:26:17;3.60;;;1.93;;
60819;SDS011;46641;48.904;9.126;2022-12-24T00:31:11;7.72;;;2.30;;
60819;SDS011;46641;48.904;9.126;2022-12-24T00:36:04;5.57;;;2.47;;
60819;SDS011;46641;48.904;9.126;2022-12-24T00:41:02;4.53;;;1.87;;
60819;SDS011;46641;48.904;9.126;2022-12-24T00:45:53;9.47;;;2.87;;
60819;SDS011;46641;48.904;9.126;2022-12-24T00:50:43;6.43;;;2.77;;
60819;SDS011;46641;48.904;9.126;2022-12-24T00:55:34;5.07;;;2.30;;
60819;SDS011;46641;48.904;9.126;2022-12-24T01:00:24;5.93;;;1.90;;
60819;SDS011;46641;48.904;9.126;2022-12-24T01:05:15;6.30;;;2.20;;
60819;SDS011;46641;48.904;9.126;2022-12-24T01:10:10;10.87;;;3.10;;
60819;SDS011;46641;48.904;9.126;2022-12-24T01:15:02;4.33;;;2.37;;
60819;SDS011;46641;48.904;9.126;2022-12-24T01:19:52;8.27;;;2.80;;
60819;SDS011;46641;48.904;9.126;2022-12-24T01:24:43;8.50;;;2.53;;
60819;SDS011;46641;48.904;9.126;2022-12-24T01:29:33;7.57;;;3.20;;
60819;SDS011;46641;48.904;9.126;2022-12-24T01:34:24;4.53;;;2.07;;
60819;SDS011;46641;48.904;9.126;2022-12-24T01:39:14;5.88;;;2.53;;
60819;SDS011;46641;48.904;9.126;2022-12-24T01:44:21;5.50;;;2.10;;
60819;SDS011;46641;48.904;9.126;2022-12-24T01:49:16;6.10;;;2.40;;
60819;SDS011;46641;48.904;9.126;2022-12-24T01:54:09;8.87;;;3.43;;
60819;SDS011;46641;48.904;9.126;2022-12-24T01:59:03;8.30;;;2.90;;
60819;SDS011;46641;48.904;9.126;2022-12-24T02:03:57;7.07;;;2.60;;
60819;SDS011;46641;48.904;9.126;2022-12-24T02:08:48;7.80;;;2.63;;
60819;SDS011;46641;48.904;9.126;2022-12-24T02:13:38;11.13;;;2.70;;
60819;SDS011;46641;48.904;9.126;2022-12-24T02:33:54;9.13;;;2.60;;
60819;SDS011;46641;48.904;9.126;2022-12-24T02:38:57;7.57;;;2.77;;
60819;SDS011;46641;48.904;9.126;2022-12-24T02:43:50;6.67;;;2.60;;
60819;SDS011;46641;48.904;9.126;2022-12-24T02:48:45;8.13;;;2.87;;
60819;SDS011;46641;48.904;9.126;2022-12-24T02:53:38;4.93;;;2.40;;
60819;SDS011;46641;48.904;9.126;2022-12-24T03:03:39;4.37;;;2.37;;
60819;SDS011;46641;48.904;9.126;2022-12-24T03:13:56;4.53;;;2.10;;
60819;SDS011;46641;48.904;9.126;2022-12-24T03:18:48;4.73;;;2.13;;
60819;SDS011;46641;48.904;9.126;2022-12-24T03:23:41;8.30;;;2.50;;
60819;SDS011;46641;48.904;9.126;2022-12-24T03:28:32;6.07;;;2.30;;
60819;SDS011;46641;48.904;9.126;2022-12-24T03:33:22;6.73;;;3.07;;
60819;SDS011;46641;48.904;9.126;2022-12-24T03:38:13;4.93;;;1.90;;
60819;SDS011;46641;48.904;9.126;2022-12-24T03:43:03;7.35;;;2.53;;
60819;SDS011;46641;48.904;9.126;2022-12-24T03:47:53;8.82;;;1.98;;
60819;SDS011;46641;48.904;9.126;2022-12-24T03:52:43;5.18;;;1.73;;
60819;SDS011;46641;48.904;9.126;2022-12-24T03:57:34;4.67;;;2.63;;
60819;SDS011;46641;48.904;9.126;2022-12-24T04:02:24;4.20;;;1.90;;
60819;SDS011;46641;48.904;9.126;2022-12-24T04:07:15;9.30;;;2.40;;
60819;SDS011;46641;48.904;9.126;2022-12-24T04:12:05;6.80;;;2.33;;
60819;SDS011;46641;48.904;9.126;2022-12-24T04:16:56;9.20;;;2.77;;
60819;SDS011;46641;48.904;9.126;2022-12-24T04:21:46;6.77;;;2.60;;
60819;SDS011;46641;48.904;9.126;2022-12-24T04:26:36;5.03;;;1.95;;
60819;SDS011;46641;48.904;9.126;2022-12-24T04:31:27;10.50;;;2.50;;
60819;SDS011;46641;48.904;9.126;2022-12-24T04:36:17;6.25;;;2.50;;
60819;SDS011;46641;48.904;9.126;2022-12-24T04:41:12;8.53;;;3.10;;
60819;SDS011;46641;48.904;9.126;2022-12-24T04:46:11;10.10;;;3.07;;
60819;SDS011;46641;48.904;9.126;2022-12-24T04:51:07;6.47;;;2.67;;
60819;SDS011;46641;48.904;9.126;2022-12-24T04:55:58;5.83;;;2.43;;
60819;SDS011;46641;48.904;9.126;2022-12-24T05:00:49;4.33;;;1.90;;
60819;SDS011;46641;48.904;9.126;2022-12-24T05:05:39;4.63;;;2.17;;
60819;SDS011;46641;48.904;9.126;2022-12-24T05:10:30;7.10;;;2.00;;
60819;SDS011;46641;48.904;9.126;2022-12-24T05:15:20;6.30;;;2.30;;
60819;SDS011;46641;48.904;9.126;2022-12-24T05:20:10;9.40;;;2.77;;
60819;SDS011;46641;48.904;9.126;2022-12-24T05:25:01;8.57;;;2.50;;
60819;SDS011;46641;48.904;9.126;2022-12-24T05:30:09;6.43;;;2.83;;
60819;SDS011;46641;48.904;9.126;2022-12-24T05:35:00;6.40;;;2.30;;
60819;SDS011;46641;48.904;9.126;2022-12-24T05:39:50;6.33;;;2.13;;
60819;SDS011;46641;48.904;9.126;2022-12-24T05:44:40;7.20;;;2.20;;
60819;SDS011;46641;48.904;9.126;2022-12-24T05:49:30;3.53;;;2.08;;
60819;SDS011;46641;48.904;9.126;2022-12-24T05:54:21;4.13;;;1.83;;
60819;SDS011;46641;48.904;9.126;2022-12-24T05:59:11;4.97;;;2.17;;
60819;SDS011;46641;48.904;9.126;2022-12-24T06:04:02;4.40;;;1.63;;
60819;SDS011;46641;48.904;9.126;2022-12-24T06:08:53;6.50;;;2.37;;
60819;SDS011;46641;48.904;9.126;2022-12-24T06:13:44;5.00;;;2.00;;
60819;SDS011;46641;48.904;9.126;2022-12-24T06:18:35;5.33;;;1.87;;
60819;SDS011;46641;48.904;9.126;2022-12-24T06:23:27;7.93;;;2.83;;
60819;SDS011;46641;48.904;9.126;2022-12-24T06:28:19;8.00;;;2.50;;
60819;SDS011;46641;48.904;9.126;2022-12-24T06:33:10;6.63;;;2.60;;
60819;SDS011;46641;48.904;9.126;2022-12-24T06:38:00;5.75;;;2.63;;
60819;SDS011;46641;48.904;9.126;2022-12-24T06:42:50;6.72;;;2.58;;
60819;SDS011;46641;48.904;9.126;2022-12-24T06:47:41;6.10;;;2.40;;
60819;SDS011;46641;48.904;9.126;2022-12-24T06:52:31;7.53;;;2.72;;
60819;SDS011;46641;48.904;9.126;2022-12-24T06:57:21;6.80;;;2.50;;
60819;SDS011;46641;48.904;9.126;2022-12-24T07:02:11;7.07;;;3.40;;
60819;SDS011;46641;48.904;9.126;2022-12-24T07:07:02;10.73;;;2.73;;
60819;SDS011;46641;48.904;9.126;2022-12-24T07:11:52;6.80;;;2.38;;
60819;SDS011;46641;48.904;9.126;2022-12-24T07:16:42;6.30;;;3.10;;
60819;SDS011;46641;48.904;9.126;2022-12-24T07:21:33;8.87;;;3.03;;
60819;SDS011;46641;48.904;9.126;2022-12-24T07:26:23;5.63;;;2.75;;
60819;SDS011;46641;48.904;9.126;2022-12-24T07:31:13;8.15;;;2.30;;
60819;SDS011;46641;48.904;9.126;2022-12-24T07:36:04;6.07;;;2.50;;
60819;SDS011;46641;48.904;9.126;2022-12-24T07:40:56;5.20;;;2.20;;
60819;SDS011;46641;48.904;9.126;2022-12-24T07:45:47;5.77;;;2.37;;
60819;SDS011;46641;48.904;9.126;2022-12-24T07:50:37;4.30;;;2.47;;
60819;SDS011;46641;48.904;9.126;2022-12-24T07:55:27;6.77;;;2.37;;
60819;SDS011;46641;48.904;9.126;2022-12-24T08:00:18;7.38;;;2.38;;
60819;SDS011;46641;48.904;9.126;2022-12-24T08:05:08;3.90;;;2.23;;
60819;SDS011;46641;48.904;9.126;2022-12-24T08:09:58;6.70;;;2.53;;
60819;SDS011;46641;48.904;9.126;2022-12-24T08:14:49;4.68;;;2.50;;
60819;SDS011;46641;48.904;9.126;2022-12-24T08:19:39;6.38;;;2.08;;
60819;SDS011;46641;48.904;9.126;2022-12-24T08:24:29;4.43;;;2.28;;
60819;SDS011;46641;48.904;9.126;2022-12-24T08:29:19;4.13;;;2.40;;
60819;SDS011;46641;48.904;9.126;2022-12-24T08:34:10;3.80;;;2.42;;
60819;SDS011;46641;48.904;9.126;2022-12-24T08:39:00;10.17;;;2.67;;
60819;SDS011;46641;48.904;9.126;2022-12-24T08:43:52;7.37;;;2.43;;
60819;SDS011;46641;48.904;9.126;2022-12-24T08:48:42;8.63;;;2.53;;
60819;SDS011;46641;48.904;9.126;2022-12-24T08:53:33;6.38;;;2.92;;
60819;SDS011;46641;48.904;9.126;2022-12-24T08:58:23;9.07;;;3.30;;
60819;SDS011;46641;48.904;9.126;2022-12-24T09:03:13;6.63;;;2.67;;
60819;SDS011;46641;48.904;9.126;2022-12-24T09:08:04;10.13;;;2.97;;
60819;SDS011;46641;48.904;9.126;2022-12-24T09:12:55;5.87;;;2.43;;
60819;SDS011;46641;48.904;9.126;2022-12-24T09:17:45;4.37;;;2.43;;
60819;SDS011;46641;48.904;9.126;2022-12-24T09:22:36;8.50;;;2.65;;
60819;SDS011;46641;48.904;9.126;2022-12-24T09:27:28;3.53;;;2.27;;
60819;SDS011;46641;48.904;9.126;2022-12-24T09:32:19;6.73;;;2.47;;
60819;SDS011;46641;48.904;9.126;2022-12-24T09:37:10;6.13;;;2.40;;
60819;SDS011;46641;48.904;9.126;2022-12-24T09:52:21;5.13;;;2.43;;
60819;SDS011;46641;48.904;9.126;2022-12-24T09:57:29;6.97;;;2.63;;
60819;SDS011;46641;48.904;9.126;2022-12-24T10:02:23;7.53;;;2.93;;
60819;SDS011;46641;48.904;9.126;2022-12-24T10:07:20;9.35;;;3.85;;
60819;SDS011;46641;48.904;9.126;2022-12-24T10:12:21;7.17;;;2.60;;
60819;SDS011;46641;48.904;9.126;2022-12-24T10:17:45;9.03;;;3.13;;
60819;SDS011;46641;48.904;9.126;2022-12-24T10:27:54;6.67;;;2.70;;
60819;SDS011;46641;48.904;9.126;2022-12-24T10:32:49;8.13;;;2.87;;
60819;SDS011;46641;48.904;9.126;2022-12-24T10:37:42;11.33;;;3.27;;
60819;SDS011;46641;48.904;9.126;2022-12-24T10:42:35;13.37;;;3.50;;
60819;SDS011;46641;48.904;9.126;2022-12-24T10:47:33;10.30;;;2.90;;
60819;SDS011;46641;48.904;9.126;2022-12-24T10:52:28;6.63;;;2.90;;
60819;SDS011;46641;48.904;9.126;2022-12-24T10:57:24;9.93;;;2.80;;
60819;SDS011;46641;48.904;9.126;2022-12-24T11:07:25;8.50;;;3.17;;
60819;SDS011;46641;48.904;9.126;2022-12-24T11:12:38;8.30;;;3.37;;
60819;SDS011;46641;48.904;9.126;2022-12-24T11:17:28;9.20;;;3.23;;
60819;SDS011;46641;48.904;9.126;2022-12-24T11:22:29;7.50;;;2.67;;
60819;SDS011;46641;48.904;9.126;2022-12-24T11:27:42;9.67;;;3.10;;
60819;SDS011;46641;48.904;9.126;2022-12-24T11:32:38;5.70;;;3.23;;
60819;SDS011;46641;48.904;9.126;2022-12-24T11:37:28;12.73;;;3.77;;
60819;SDS011;46641;48.904;9.126;2022-12-24T11:42:32;9.95;;;3.60;;
60819;SDS011;46641;48.904;9.126;2022-12-24T11:47:59;9.27;;;3.30;;
60819;SDS011;46641;48.904;9.126;2022-12-24T11:52:43;8.93;;;3.30;;
60819;SDS011;46641;48.904;9.126;2022-12-24T11:57:41;6.90;;;3.00;;
60819;SDS011;46641;48.904;9.126;2022-12-24T12:02:40;13.13;;;3.20;;
60819;SDS011;46641;48.904;9.126;2022-12-24T12:07:33;7.87;;;3.90;;
60819;SDS011;46641;48.904;9.126;2022-12-24T12:12:30;10.63;;;3.93;;
60819;SDS011;46641;48.904;9.126;2022-12-24T12:17:35;10.37;;;4.00;;
60819;SDS011;46641;48.904;9.126;2022-12-24T12:22:36;9.57;;;4.97;;
60819;SDS011;46641;48.904;9.126;2022-12-24T12:27:38;7.13;;;4.33;;
60819;SDS011;46641;48.904;9.126;2022-12-24T12:32:53;9.03;;;4.10;;
60819;SDS011;46641;48.904;9.126;2022-12-24T12:37:51;8.23;;;4.10;;
60819;SDS011;46641;48.904;9.126;2022-12-24T12:58:46;9.67;;;2.97;;
60819;SDS011;46641;48.904;9.126;2022-12-24T13:03:45;8.73;;;3.13;;
60819;SDS011;46641;48.904;9.126;2022-12-24T13:08:53;8.37;;;3.60;;
60819;SDS011;46641;48.904;9.126;2022-12-24T13:19:12;10.73;;;5.77;;
60819;SDS011;46641;48.904;9.126;2022-12-24T13:24:06;10.37;;;4.40;;
60819;SDS011;46641;48.904;9.126;2022-12-24T13:29:28;10.10;;;4.93;;
60819;SDS011;46641;48.904;9.126;2022-12-24T13:34:34;20.30;;;10.50;;
60819;SDS011;46641;48.904;9.126;2022-12-24T13:39:25;20.57;;;12.40;;
60819;SDS011;46641;48.904;9.126;2022-12-24T13:44:16;15.25;;;9.13;;
60819;SDS011;46641;48.904;9.126;2022-12-24T13:49:10;17.40;;;9.70;;
60819;SDS011;46641;48.904;9.126;2022-12-24T13:54:08;23.27;;;12.80;;
60819;SDS011;46641;48.904;9.126;2022-12-24T14:04:22;16.30;;;9.27;;
60819;SDS011;46641;48.904;9.126;2022-12-24T14:09:21;17.97;;;11.67;;
60819;SDS011;46641;48.904;9.126;2022-12-24T14:14:24;26.97;;;15.87;;
60819;SDS011;46641;48.904;9.126;2022-12-24T14:19:51;12.87;;;5.30;;
60819;SDS011;46641;48.904;9.126;2022-12-24T14:24:40;13.23;;;6.33;;
60819;SDS011;46641;48.904;9.126;2022-12-24T14:29:33;15.83;;;10.43;;
60819;SDS011;46641;48.904;9.126;2022-12-24T14:34:30;11.00;;;5.83;;
60819;SDS011;46641;48.904;9.126;2022-12-24T14:39:28;13.47;;;7.07;;
60819;SDS011;46641;48.904;9.126;2022-12-24T14:54:54;13.90;;;6.63;;
60819;SDS011;46641;48.904;9.126;2022-12-24T15:04:45;13.20;;;6.63;;
60819;SDS011;46641;48.904;9.126;2022-12-24T15:09:35;13.95;;;8.02;;
60819;SDS011;46641;48.904;9.126;2022-12-24T15:14:30;14.47;;;7.33;;
60819;SDS011;46641;48.904;9.126;2022-12-24T15:19:40;14.83;;;8.03;;
60819;SDS011;46641;48.904;9.126;2022-12-24T15:24:33;19.10;;;11.37;;
60819;SDS011;46641;48.904;9.126;2022-12-24T15:29:26;15.20;;;7.77;;
60819;SDS011;46641;48.904;9.126;2022-12-24T15:34:28;12.03;;;8.23;;
60819;SDS011;46641;48.904;9.126;2022-12-24T15:39:24;12.67;;;7.33;;
60819;SDS011;46641;48.904;9.126;2022-12-24T15:44:14;10.68;;;6.20;;
60819;SDS011;46641;48.904;9.126;2022-12-24T15:49:04;18.20;;;9.80;;
60819;SDS011;46641;48.904;9.126;2022-12-24T15:54:05;15.70;;;10.17;;
60819;SDS011;46641;48.904;9.126;2022-12-24T16:04:18;10.17;;;7.37;;
60819;SDS011;46641;48.904;9.126;2022-12-24T16:14:34;14.23;;;8.37;;
60819;SDS011;46641;48.904;9.126;2022-12-24T16:19:29;14.43;;;8.33;;
60819;SDS011;46641;48.904;9.126;2022-12-24T16:24:23;9.23;;;6.33;;
60819;SDS011;46641;48.904;9.126;2022-12-24T16:29:15;9.77;;;6.90;;
60819;SDS011;46641;48.904;9.126;2022-12-24T16:34:09;13.17;;;6.93;;
60819;SDS011;46641;48.904;9.126;2022-12-24T16:39:04;12.93;;;8.63;;
60819;SDS011;46641;48.904;9.126;2022-12-24T16:44:12;10.43;;;6.17;;
60819;SDS011;46641;48.904;9.126;2022-12-24T16:49:02;19.43;;;13.43;;
60819;SDS011;46641;48.904;9.126;2022-12-24T16:53:53;16.80;;;12.80;;
60819;SDS011;46641;48.904;9.126;2022-12-24T16:58:43;12.37;;;8.23;;
60819;SDS011;46641;48.904;9.126;2022-12-24T17:03:33;12.97;;;7.07;;
60819;SDS011;46641;48.904;9.126;2022-12-24T17:08:24;14.50;;;7.40;;
60819;SDS011;46641;48.904;9.126;2022-12-24T17:13:14;10.83;;;6.97;;
60819;SDS011;46641;48.904;9.126;2022-12-24T17:18:04;12.47;;;6.90;;
60819;SDS011;46641;48.904;9.126;2022-12-24T17:22:55;13.63;;;6.85;;
60819;SDS011;46641;48.904;9.126;2022-12-24T17:27:45;11.83;;;7.67;;
60819;SDS011;46641;48.904;9.126;2022-12-24T17:32:35;11.33;;;6.47;;
60819;SDS011;46641;48.904;9.126;2022-12-24T17:37:26;11.73;;;6.77;;
60819;SDS011;46641;48.904;9.126;2022-12-24T17:42:16;11.68;;;6.28;;
60819;SDS011;46641;48.904;9.126;2022-12-24T17:47:07;12.83;;;7.03;;
60819;SDS011;46641;48.904;9.126;2022-12-24T17:51:57;10.50;;;6.33;;
60819;SDS011;46641;48.904;9.126;2022-12-24T17:56:47;12.07;;;6.67;;
60819;SDS011;46641;48.904;9.126;2022-12-24T18:01:38;8.70;;;5.87;;
60819;SDS011;46641;48.904;9.126;2022-12-24T18:06:28;10.40;;;6.67;;
60819;SDS011;46641;48.904;9.126;2022-12-24T18:11:20;13.43;;;7.70;;
60819;SDS011;46641;48.904;9.126;2022-12-24T18:21:11;12.53;;;8.93;;
60819;SDS011;46641;48.904;9.126;2022-12-24T18:26:04;13.20;;;7.53;;
60819;SDS011;46641;48.904;9.126;2022-12-24T18:30:59;12.37;;;7.83;;
60819;SDS011;46641;48.904;9.126;2022-12-24T18:35:50;10.60;;;7.83;;
60819;SDS011;46641;48.904;9.126;2022-12-24T18:40:40;10.50;;;7.25;;
60819;SDS011;46641;48.904;9.126;2022-12-24T18:45:31;14.27;;;7.67;;
60819;SDS011;46641;48.904;9.126;2022-12-24T18:50:21;9.40;;;6.55;;
60819;SDS011;46641;48.904;9.126;2022-12-24T18:55:11;11.27;;;7.88;;
60819;SDS011;46641;48.904;9.126;2022-12-24T19:00:02;11.70;;;6.80;;
60819;SDS011;46641;48.904;9.126;2022-12-24T19:04:53;10.03;;;7.13;;
60819;SDS011;46641;48.904;9.126;2022-12-24T19:09:43;11.43;;;6.80;;
60819;SDS011;46641;48.904;9.126;2022-12-24T19:14:37;17.57;;;8.90;;
60819;SDS011;46641;48.904;9.126;2022-12-24T19:19:28;27.40;;;15.07;;
60819;SDS011;46641;48.904;9.126;2022-12-24T19:24:18;15.93;;;9.95;;
60819;SDS011;46641;48.904;9.126;2022-12-24T19:29:09;18.00;;;9.87;;
60819;SDS011;46641;48.904;9.126;2022-12-24T19:33:59;10.10;;;6.50;;
60819;SDS011;46641;48.904;9.126;2022-12-24T19:38:49;9.27;;;5.63;;
60819;SDS011;46641;48.904;9.126;2022-12-24T19:43:40;5.77;;;5.00;;
60819;SDS011;46641;48.904;9.126;2022-12-24T19:48:36;8.23;;;6.17;;
60819;SDS011;46641;48.904;9.126;2022-12-24T19:53:27;7.63;;;6.17;;
60819;SDS011;46641;48.904;9.126;2022-12-24T19:58:17;6.83;;;6.13;;
60819;SDS011;46641;48.904;9.126;2022-12-24T20:03:08;5.90;;;4.93;;
60819;SDS011;46641;48.904;9.126;2022-12-24T20:07:58;7.22;;;5.78;;
60819;SDS011;46641;48.904;9.126;2022-12-24T20:12:48;5.57;;;4.03;;
60819;SDS011;46641;48.904;9.126;2022-12-24T20:17:39;4.13;;;3.70;;
60819;SDS011;46641;48.904;9.126;2022-12-24T20:22:29;6.73;;;4.80;;
60819;SDS011;46641;48.904;9.126;2022-12-24T20:27:19;5.18;;;3.42;;
60819;SDS011;46641;48.904;9.126;2022-12-24T20:32:09;5.83;;;3.23;;
60819;SDS011;46641;48.904;9.126;2022-12-24T20:37:00;7.03;;;3.47;;
60819;SDS011;46641;48.904;9.126;2022-12-24T20:41:50;7.87;;;5.03;;
60819;SDS011;46641;48.904;9.126;2022-12-24T20:46:40;4.95;;;4.00;;
60819;SDS011;46641;48.904;9.126;2022-12-24T20:51:31;5.65;;;3.85;;
60819;SDS011;46641;48.904;9.126;2022-12-24T20:56:21;4.68;;;3.55;;
60819;SDS011;46641;48.904;9.126;2022-12-24T21:01:13;4.20;;;3.57;;
60819;SDS011;46641;48.904;9.126;2022-12-24T21:06:06;3.73;;;2.90;;
60819;SDS011;46641;48.904;9.126;2022-12-24T21:10:57;9.67;;;5.27;;
60819;SDS011;46641;48.904;9.126;2022-12-24T21:16:06;15.43;;;9.60;;
60819;SDS011;46641;48.904;9.126;2022-12-24T21:20:56;8.17;;;6.07;;
60819;SDS011;46641;48.904;9.126;2022-12-24T21:25:55;4.28;;;3.35;;
60819;SDS011;46641;48.904;9.126;2022-12-24T21:30:49;5.23;;;2.53;;
60819;SDS011;46641;48.904;9.126;2022-12-24T21:35:40;4.60;;;3.40;;
60819;SDS011;46641;48.904;9.126;2022-12-24T21:40:30;4.22;;;2.88;;
60819;SDS011;46641;48.904;9.126;2022-12-24T21:45:20;3.07;;;2.73;;
60819;SDS011;46641;48.904;9.126;2022-12-24T21:50:11;3.03;;;2.73;;
60819;SDS011;46641;48.904;9.126;2022-12-24T21:55:21;3.23;;;2.93;;
60819;SDS011;46641;48.904;9.126;2022-12-24T22:00:11;2.58;;;2.30;;
60819;SDS011;46641;48.904;9.126;2022-12-24T22:05:11;4.47;;;3.07;;
60819;SDS011;46641;48.904;9.126;2022-12-24T22:10:01;3.07;;;2.50;;
60819;SDS011;46641;48.904;9.126;2022-12-24T22:15:10;4.23;;;2.47;;
60819;SDS011;46641;48.904;9.126;2022-12-24T22:20:00;4.73;;;2.93;;
60819;SDS011;46641;48.904;9.126;2022-12-24T22:24:51;4.40;;;2.83;;
60819;SDS011;46641;48.904;9.126;2022-12-24T22:29:41;2.93;;;2.63;;
60819;SDS011;46641;48.904;9.126;2022-12-24T22:34:31;4.38;;;2.83;;
60819;SDS011;46641;48.904;9.126;2022-12-24T22:39:21;3.70;;;2.70;;
60819;SDS011;46641;48.904;9.126;2022-12-24T22:44:12;3.17;;;2.40;;
60819;SDS011;46641;48.904;9.126;2022-12-24T22:49:02;3.03;;;2.45;;
60819;SDS011;46641;48.904;9.126;2022-12-24T22:53:52;3.80;;;2.95;;
60819;SDS011;46641;48.904;9.126;2022-12-24T22:58:43;3.50;;;2.03;;
60819;SDS011;46641;48.904;9.126;2022-12-24T23:03:33;3.07;;;2.30;;
60819;SDS011;46641;48.904;9.126;2022-12-24T23:08:24;3.23;;;2.40;;
60819;SDS011;46641;48.904;9.126;2022-12-24T23:13:15;3.83;;;2.70;;
60819;SDS011;46641;48.904;9.126;2022-12-24T23:18:24;2.60;;;2.40;;
60819;SDS011;46641;48.904;9.126;2022-12-24T23:23:14;3.60;;;2.30;;
60819;SDS011;46641;48.904;9.126;2022-12-24T23:28:04;3.47;;;2.30;;
60819;SDS011;46641;48.904;9.126;2022-12-24T23:32:55;3.30;;;2.40;;
60819;SDS011;46641;48.904;9.126;2022-12-24T23:37:45;2.47;;;2.17;;
60819;SDS011;46641;48.904;9.126;2022-12-24T23:42:35;3.75;;;2.20;;
60819;SDS011;46641;48.904;9.126;2022-12-24T23:47:26;3.57;;;2.20;;
60819;SDS011;46641;48.904;9.126;2022-12-24T23:52:16;3.17;;;2.33;;
60819;SDS011;46641;48.904;9.126;2022-12-24T23:57:06;2.80;;;2.10;;
